sensor_id;sensor_type;location;lat;lon;timestamp;P1;P2;P0
80394;PMS7003;71133;31.962;118.754;2023-07-13T00:00:07;29.00;27.75;20.00
80394;PMS7003;71133;31.962;118.754;2023-07-13T00:02:35;27.00;25.75;20.00
80394;PMS7003;71133;31.962;118.754;2023-07-13T00:05:02;25.00;24.00;19.25
80394;PMS7003;71133;31.962;118.754;2023-07-13T00:07:28;27.25;25.00;18.25
80394;PMS7003;71133;31.962;118.754;2023-07-13T00:09:56;23.50;23.50;19.00
80394;PMS7003;71133;31.962;118.754;2023-07-13T00:12:28;26.75;26.00;20.00
80394;PMS7003;71133;31.962;118.754;2023-07-13T00:15:05;26.50;25.00;19.50
80394;PMS7003;71133;31.962;118.754;2023-07-13T00:17:37;26.50;24.50;19.00
80394;PMS7003;71133;31.962;118.754;2023-07-13T00:20:04;28.25;27.50;20.00
80394;PMS7003;71133;31.962;118.754;2023-07-13T00:22:32;28.25;26.75;18.75
80394;PMS7003;71133;31.962;118.754;2023-07-13T00:24:59;25.75;25.75;19.00
80394;PMS7003;71133;31.962;118.754;2023-07-13T00:27:25;26.00;26.00;19.75
80394;PMS7003;71133;31.962;118.754;2023-07-13T00:29:52;24.00;23.50;17.75
80394;PMS7003;71133;31.962;118.754;2023-07-13T00:32:18;22.75;22.25;16.25
80394;PMS7003;71133;31.962;118.754;2023-07-13T00:34:45;27.25;27.00;19.50
80394;PMS7003;71133;31.962;118.754;2023-07-13T00:37:12;23.50;21.50;15.75
80394;PMS7003;71133;31.962;118.754;2023-07-13T00:39:39;23.75;23.75;18.50
80394;PMS7003;71133;31.962;118.754;2023-07-13T00:42:06;22.25;22.00;18.75
80394;PMS7003;71133;31.962;118.754;2023-07-13T00:44:33;26.75;25.00;19.00
80394;PMS7003;71133;31.962;118.754;2023-07-13T00:46:59;27.50;26.25;19.50
80394;PMS7003;71133;31.962;118.754;2023-07-13T00:49:27;27.00;26.25;19.00
80394;PMS7003;71133;31.962;118.754;2023-07-13T00:52:02;28.25;26.75;20.00
80394;PMS7003;71133;31.962;118.754;2023-07-13T00:54:38;27.00;26.25;19.75
80394;PMS7003;71133;31.962;118.754;2023-07-13T00:57:08;29.50;28.00;19.25
80394;PMS7003;71133;31.962;118.754;2023-07-13T00:59:40;28.50;26.00;18.75
80394;PMS7003;71133;31.962;118.754;2023-07-13T01:02:11;30.25;28.50;20.00
80394;PMS7003;71133;31.962;118.754;2023-07-13T01:04:38;31.50;28.50;20.00
80394;PMS7003;71133;31.962;118.754;2023-07-13T01:07:04;31.75;29.75;21.00
80394;PMS7003;71133;31.962;118.754;2023-07-13T01:09:32;31.00;29.00;20.75
80394;PMS7003;71133;31.962;118.754;2023-07-13T01:11:59;27.75;27.00;20.00
80394;PMS7003;71133;31.962;118.754;2023-07-13T01:14:26;32.25;30.00;21.25
80394;PMS7003;71133;31.962;118.754;2023-07-13T01:16:52;36.25;30.00;21.00
80394;PMS7003;71133;31.962;118.754;2023-07-13T01:21:51;29.25;27.25;20.25
80394;PMS7003;71133;31.962;118.754;2023-07-13T02:46:26;45.25;36.50;24.50
80394;PMS7003;71133;31.962;118.754;2023-07-13T02:48:55;45.25;37.00;25.00
80394;PMS7003;71133;31.962;118.754;2023-07-13T02:51:21;45.25;38.75;25.00
80394;PMS7003;71133;31.962;118.754;2023-07-13T02:53:48;53.50;44.00;29.00
80394;PMS7003;71133;31.962;118.754;2023-07-13T02:56:15;50.75;41.25;27.50
80394;PMS7003;71133;31.962;118.754;2023-07-13T02:58:42;49.00;40.25;26.50
80394;PMS7003;71133;31.962;118.754;2023-07-13T03:01:10;46.25;39.00;26.25
80394;PMS7003;71133;31.962;118.754;2023-07-13T03:03:37;42.00;35.25;25.00
80394;PMS7003;71133;31.962;118.754;2023-07-13T03:06:05;43.75;36.00;24.75
80394;PMS7003;71133;31.962;118.754;2023-07-13T03:08:34;43.50;36.75;24.75
80394;PMS7003;71133;31.962;118.754;2023-07-13T03:11:02;40.25;33.75;24.25
80394;PMS7003;71133;31.962;118.754;2023-07-13T03:13:32;33.25;31.00;22.50
80394;PMS7003;71133;31.962;118.754;2023-07-13T03:16:00;35.00;31.00;22.00
80394;PMS7003;71133;31.962;118.754;2023-07-13T03:18:27;40.00;33.75;25.00
80394;PMS7003;71133;31.962;118.754;2023-07-13T03:23:27;41.75;34.00;24.25
80394;PMS7003;71133;31.962;118.754;2023-07-13T03:26:02;38.75;33.25;21.75
80394;PMS7003;71133;31.962;118.754;2023-07-13T03:28:29;46.50;39.50;26.75
80394;PMS7003;71133;31.962;118.754;2023-07-13T03:31:06;42.00;34.75;24.25
80394;PMS7003;71133;31.962;118.754;2023-07-13T03:33:36;41.00;36.00;24.25
80394;PMS7003;71133;31.962;118.754;2023-07-13T03:36:04;37.75;33.75;23.50
80394;PMS7003;71133;31.962;118.754;2023-07-13T03:38:34;39.75;33.75;23.00
80394;PMS7003;71133;31.962;118.754;2023-07-13T03:41:01;39.50;34.00;23.00
80394;PMS7003;71133;31.962;118.754;2023-07-13T03:43:28;35.50;32.50;22.50
80394;PMS7003;71133;31.962;118.754;2023-07-13T03:45:55;34.75;30.75;20.75
80394;PMS7003;71133;31.962;118.754;2023-07-13T03:48:22;35.75;31.00;22.00
80394;PMS7003;71133;31.962;118.754;2023-07-13T03:50:50;36.75;32.00;22.00
80394;PMS7003;71133;31.962;118.754;2023-07-13T03:53:16;33.75;31.00;22.00
80394;PMS7003;71133;31.962;118.754;2023-07-13T03:55:45;33.75;30.50;21.25
80394;PMS7003;71133;31.962;118.754;2023-07-13T04:01:01;33.50;31.00;20.75
80394;PMS7003;71133;31.962;118.754;2023-07-13T04:03:31;40.75;32.75;22.50
80394;PMS7003;71133;31.962;118.754;2023-07-13T04:05:59;32.50;31.00;22.00
80394;PMS7003;71133;31.962;118.754;2023-07-13T04:08:28;32.50;31.00;22.00
80394;PMS7003;71133;31.962;118.754;2023-07-13T04:10:57;36.00;32.00;23.00
